createdAt,value
2022-11-08T00:00:20.802Z,17.85
2022-11-08T00:02:48.831Z,16.00
2022-11-08T00:05:35.007Z,16.25
2022-11-08T00:08:22.618Z,15.50
2022-11-08T00:11:08.770Z,15.75
2022-11-08T00:13:54.964Z,15.35
2022-11-08T00:16:22.961Z,15.75
2022-11-08T00:18:50.845Z,15.25
2022-11-08T00:21:18.791Z,14.75
2022-11-08T00:23:47.639Z,14.63
2022-11-08T00:26:15.373Z,16.33
2022-11-08T00:28:43.115Z,14.93
2022-11-08T00:31:11.037Z,13.55
2022-11-08T00:33:38.770Z,14.93
2022-11-08T00:36:06.991Z,13.88
2022-11-08T00:38:34.701Z,13.75
2022-11-08T00:41:01.934Z,14.82
2022-11-08T00:43:28.960Z,13.00
2022-11-08T00:45:56.158Z,12.15
2022-11-08T00:48:23.508Z,11.48
2022-11-08T00:50:50.530Z,12.43
2022-11-08T00:53:17.587Z,11.10
2022-11-08T00:55:44.732Z,13.15
2022-11-08T00:58:11.855Z,11.25
2022-11-08T01:00:38.768Z,12.07
2022-11-08T01:03:20.866Z,12.63
2022-11-08T01:05:48.852Z,11.93
2022-11-08T01:08:17.716Z,11.95
2022-11-08T01:10:47.596Z,12.20
2022-11-08T01:13:15.694Z,11.55
2022-11-08T01:15:44.873Z,11.13
2022-11-08T01:18:13.624Z,10.30
2022-11-08T01:20:44.830Z,11.32
2022-11-08T01:23:12.523Z,12.13
2022-11-08T01:25:41.963Z,10.95
2022-11-08T01:28:09.369Z,11.25
2022-11-08T01:30:37.721Z,10.40
2022-11-08T01:33:05.437Z,12.45
2022-11-08T01:35:33.649Z,12.13
2022-11-08T01:38:01.935Z,11.27
2022-11-08T01:40:29.322Z,11.75
2022-11-08T01:42:56.350Z,10.20
2022-11-08T01:46:16.062Z,10.48
2022-11-08T01:48:49.819Z,10.75
2022-11-08T01:51:20.694Z,11.45
2022-11-08T01:53:48.609Z,10.93
2022-11-08T01:56:16.251Z,11.80
2022-11-08T01:58:45.993Z,11.48
2022-11-08T02:01:13.403Z,12.23
2022-11-08T02:03:41.761Z,12.48
2022-11-08T02:06:09.951Z,11.68
2022-11-08T02:08:42.225Z,13.15
2022-11-08T02:11:14.622Z,12.35
2022-11-08T02:13:41.978Z,9.98
2022-11-08T02:16:17.358Z,11.20
2022-11-08T02:18:46.093Z,10.80
2022-11-08T02:21:44.274Z,10.75
2022-11-08T02:24:13.130Z,10.02
2022-11-08T02:26:40.893Z,10.40
2022-11-08T02:29:28.209Z,11.07
2022-11-08T02:31:55.999Z,10.10
2022-11-08T02:34:45.482Z,10.93
2022-11-08T02:37:15.289Z,10.50
2022-11-08T02:39:43.225Z,10.95
2022-11-08T02:42:17.183Z,10.73
2022-11-08T02:44:45.391Z,10.27
2022-11-08T02:47:12.505Z,11.10
2022-11-08T02:49:39.591Z,10.43
2022-11-08T02:52:06.725Z,11.45
2022-11-08T02:54:33.850Z,9.70
2022-11-08T02:57:00.906Z,10.25
2022-11-08T02:59:28.059Z,10.55
2022-11-08T03:01:55.192Z,10.10
2022-11-08T03:04:22.373Z,10.68
2022-11-08T03:06:49.451Z,10.55
2022-11-08T03:09:16.417Z,11.02
2022-11-08T03:11:43.497Z,9.90
2022-11-08T03:14:10.511Z,12.25
2022-11-08T03:16:37.525Z,10.07
2022-11-08T03:19:04.647Z,10.55
2022-11-08T03:21:31.637Z,10.27
2022-11-08T03:23:59.004Z,12.02
2022-11-08T03:26:26.094Z,11.02
2022-11-08T03:28:53.061Z,11.43
2022-11-08T03:31:20.073Z,11.23
2022-11-08T03:33:47.069Z,11.20
2022-11-08T03:36:14.150Z,11.57
2022-11-08T03:38:41.357Z,10.82
2022-11-08T03:41:08.394Z,11.82
2022-11-08T03:43:35.373Z,10.88
2022-11-08T03:46:02.375Z,10.63
2022-11-08T03:48:29.272Z,10.98
2022-11-08T03:50:56.280Z,11.07
2022-11-08T03:53:23.191Z,10.48
2022-11-08T03:55:50.417Z,11.60
2022-11-08T03:58:17.664Z,11.20
2022-11-08T04:00:44.778Z,10.77
2022-11-08T04:03:12.110Z,11.07
2022-11-08T04:05:39.023Z,9.20
2022-11-08T04:08:06.420Z,10.25
2022-11-08T04:10:33.899Z,10.48
2022-11-08T04:13:20.709Z,10.88
2022-11-08T04:15:53.910Z,9.73
2022-11-08T04:18:39.356Z,10.38
2022-11-08T04:21:20.310Z,9.00
2022-11-08T04:23:48.910Z,9.68
2022-11-08T04:26:16.295Z,9.93
2022-11-08T04:28:43.679Z,8.77
2022-11-08T04:31:17.844Z,10.55
2022-11-08T04:33:45.181Z,9.73
2022-11-08T04:36:17.485Z,9.98
2022-11-08T04:38:47.648Z,10.77
2022-11-08T04:41:15.849Z,11.30
2022-11-08T04:43:42.932Z,10.20
2022-11-08T04:46:12.733Z,9.63
2022-11-08T04:48:40.835Z,12.30
2022-11-08T04:51:16.676Z,11.35
2022-11-08T04:53:44.200Z,10.98
2022-11-08T04:56:14.039Z,9.68
2022-11-08T04:58:43.555Z,8.93
2022-11-08T05:01:13.551Z,9.60
2022-11-08T05:03:40.605Z,9.60
2022-11-08T05:06:19.734Z,8.75
2022-11-08T05:08:47.483Z,8.70
2022-11-08T05:11:17.660Z,8.65
2022-11-08T05:13:45.326Z,8.80
2022-11-08T05:16:24.310Z,10.68
2022-11-08T05:18:51.396Z,9.90
2022-11-08T05:21:39.690Z,10.23
2022-11-08T05:24:08.953Z,8.52
2022-11-08T05:26:37.705Z,8.15
2022-11-08T05:29:05.210Z,8.27
2022-11-08T05:31:32.520Z,8.20
2022-11-08T05:34:00.831Z,8.48
2022-11-08T05:36:28.486Z,8.10
2022-11-08T05:38:56.325Z,8.05
2022-11-08T05:41:24.741Z,9.30
2022-11-08T05:43:53.761Z,9.68
2022-11-08T05:46:22.624Z,7.65
2022-11-08T05:48:50.049Z,7.88
2022-11-08T05:51:19.134Z,7.72
2022-11-08T05:53:48.940Z,8.05
2022-11-08T05:56:16.923Z,8.80
2022-11-08T05:58:44.587Z,11.07
2022-11-08T06:01:14.731Z,10.32
2022-11-08T06:03:41.842Z,8.52
2022-11-08T06:06:11.650Z,8.63
2022-11-08T06:08:39.143Z,9.38
2022-11-08T06:11:08.915Z,11.18
2022-11-08T06:13:36.383Z,10.93
2022-11-08T06:16:06.218Z,13.02
2022-11-08T06:18:34.279Z,12.82
2022-11-08T06:21:02.924Z,12.35
2022-11-08T06:23:30.166Z,10.18
2022-11-08T06:25:57.221Z,10.15
2022-11-08T06:28:24.694Z,9.18
2022-11-08T06:30:52.034Z,8.73
2022-11-08T06:33:20.733Z,8.77
2022-11-08T06:35:48.017Z,10.00
2022-11-08T06:38:14.955Z,9.82
2022-11-08T06:40:42.682Z,8.52
2022-11-08T06:43:16.445Z,9.63
2022-11-08T06:45:46.882Z,9.10
2022-11-08T06:48:14.009Z,10.98
2022-11-08T06:50:42.585Z,10.18
2022-11-08T06:53:14.978Z,11.90
2022-11-08T06:55:42.459Z,10.35
2022-11-08T06:58:10.807Z,9.57
2022-11-08T07:00:37.775Z,8.18
2022-11-08T07:50:57.869Z,8.75
2022-11-08T07:53:25.700Z,9.50
2022-11-08T07:55:55.683Z,8.68
2022-11-08T07:58:22.944Z,9.57
2022-11-08T08:00:51.927Z,9.63
2022-11-08T08:03:20.070Z,11.77
2022-11-08T08:05:56.589Z,9.95
2022-11-08T08:11:46.033Z,9.05
2022-11-08T08:14:14.431Z,9.63
2022-11-08T08:19:47.206Z,9.68
2022-11-08T08:22:15.105Z,7.93
2022-11-08T08:24:42.350Z,9.73
2022-11-08T08:27:11.411Z,9.45
2022-11-08T08:29:38.473Z,9.32
2022-11-08T08:34:47.658Z,9.27
2022-11-08T08:37:15.557Z,9.57
2022-11-08T08:39:42.572Z,8.32
2022-11-08T08:42:09.626Z,7.63
2022-11-08T08:44:36.602Z,9.10
2022-11-08T08:47:03.726Z,9.18
2022-11-08T08:49:30.706Z,7.57
2022-11-08T08:51:57.683Z,9.02
2022-11-08T08:54:28.347Z,9.32
2022-11-08T08:56:56.586Z,8.70
2022-11-08T09:02:17.045Z,8.38
2022-11-08T09:04:43.973Z,8.88
2022-11-08T09:07:11.363Z,8.65
2022-11-08T09:09:38.447Z,9.27
2022-11-08T09:12:09.076Z,11.40
2022-11-08T09:14:40.530Z,10.20
2022-11-08T09:17:07.497Z,10.45
2022-11-08T09:19:34.621Z,10.25
2022-11-08T09:22:01.681Z,11.32
2022-11-08T09:24:28.663Z,10.77
2022-11-08T09:26:56.327Z,10.40
2022-11-08T09:29:23.259Z,11.13
2022-11-08T09:31:50.211Z,11.32
2022-11-08T09:34:20.560Z,12.32
2022-11-08T09:36:48.888Z,12.15
2022-11-08T09:39:16.550Z,12.27
2022-11-08T09:42:01.617Z,12.18
2022-11-08T09:45:06.909Z,11.90
2022-11-08T09:47:39.615Z,13.88
2022-11-08T09:50:18.658Z,15.45
2022-11-08T09:53:03.307Z,12.90
2022-11-08T09:55:52.478Z,14.18
2022-11-08T09:58:25.461Z,14.15
2022-11-08T10:00:53.658Z,14.82
2022-11-08T10:03:24.594Z,15.48
2022-11-08T10:06:31.227Z,14.63
2022-11-08T10:09:13.351Z,13.27
2022-11-08T10:11:55.634Z,13.53
2022-11-08T10:14:22.550Z,14.50
2022-11-08T10:17:11.812Z,13.52
2022-11-08T10:20:07.717Z,14.27
2022-11-08T10:23:13.002Z,14.88
2022-11-08T10:25:47.745Z,13.18
2022-11-08T10:28:23.348Z,13.73
2022-11-08T10:30:53.434Z,13.85
2022-11-08T10:33:32.626Z,13.10
2022-11-08T10:36:13.692Z,10.77
2022-11-08T10:38:50.455Z,10.95
2022-11-08T10:41:45.242Z,13.80
2022-11-08T10:44:24.953Z,14.10
2022-11-08T10:46:59.923Z,14.65
2022-11-08T10:49:33.628Z,12.98
2022-11-08T10:52:12.530Z,13.73
2022-11-08T10:54:43.313Z,14.60
2022-11-08T10:57:13.335Z,16.27
2022-11-08T10:59:40.824Z,13.85
2022-11-08T11:02:22.214Z,16.48
2022-11-08T11:04:49.991Z,16.23
2022-11-08T11:07:26.600Z,14.95
2022-11-08T11:09:53.717Z,16.85
2022-11-08T11:12:20.617Z,16.35
2022-11-08T11:14:57.940Z,15.98
2022-11-08T11:17:35.749Z,14.98
2022-11-08T11:20:18.490Z,16.77
2022-11-08T11:22:46.748Z,15.20
2022-11-08T11:25:31.670Z,15.13
2022-11-08T11:28:00.695Z,17.38
2022-11-08T11:30:28.403Z,14.60
2022-11-08T11:32:59.600Z,13.90
2022-11-08T11:35:34.449Z,15.68
2022-11-08T11:38:04.129Z,15.75
2022-11-08T11:40:43.749Z,14.88
2022-11-08T11:44:01.086Z,13.93
2022-11-08T11:46:41.646Z,15.23
2022-11-08T11:49:17.100Z,16.38
2022-11-08T11:51:44.222Z,17.67
2022-11-08T11:54:14.756Z,16.92
2022-11-08T11:56:47.564Z,17.55
2022-11-08T12:02:01.897Z,16.33
2022-11-08T12:04:44.379Z,15.70
2022-11-08T12:07:17.137Z,15.80
2022-11-08T12:13:10.260Z,17.08
2022-11-08T12:15:44.448Z,19.13
2022-11-08T12:18:25.808Z,14.02
2022-11-08T12:21:26.119Z,17.08
2022-11-08T12:24:05.314Z,17.60
2022-11-08T12:27:01.735Z,17.63
2022-11-08T12:30:03.363Z,18.02
2022-11-08T12:32:59.739Z,17.38
2022-11-08T12:35:37.006Z,17.15
2022-11-08T12:38:29.232Z,15.68
2022-11-08T12:41:05.060Z,16.88
2022-11-08T12:43:53.801Z,13.55
2022-11-08T12:46:21.469Z,16.33
2022-11-08T12:49:01.511Z,15.07
2022-11-08T12:51:59.147Z,16.10
2022-11-08T12:54:37.575Z,15.75
2022-11-08T12:57:17.744Z,14.85
2022-11-08T13:00:16.670Z,17.73
2022-11-08T13:02:49.033Z,13.30
2022-11-08T13:05:24.838Z,16.77
2022-11-08T13:08:16.305Z,15.48
2022-11-08T13:11:02.535Z,15.13
2022-11-08T13:13:54.556Z,16.60
2022-11-08T13:16:24.926Z,12.75
2022-11-08T13:18:56.269Z,14.40
2022-11-08T13:21:26.244Z,16.65
2022-11-08T13:23:54.648Z,15.52
2022-11-08T13:26:24.336Z,14.18
2022-11-08T13:28:53.342Z,13.40
2022-11-08T13:31:27.239Z,14.13
2022-11-08T13:34:29.295Z,13.80
2022-11-08T13:37:39.902Z,13.00
2022-11-08T13:40:13.094Z,14.50
2022-11-08T13:43:21.647Z,15.18
2022-11-08T13:45:49.732Z,16.13
2022-11-08T13:48:26.304Z,14.48
2022-11-08T13:50:57.031Z,16.17
2022-11-08T13:53:43.726Z,14.55
2022-11-08T13:56:10.640Z,17.05
2022-11-08T13:58:40.290Z,18.38
2022-11-08T14:01:22.397Z,17.38
2022-11-08T14:03:49.512Z,17.73
2022-11-08T14:06:44.582Z,17.13
2022-11-08T14:09:11.733Z,18.48
2022-11-08T14:11:49.571Z,19.48
2022-11-08T14:14:16.429Z,17.13
2022-11-08T14:17:01.652Z,16.10
2022-11-08T14:19:33.177Z,18.10
2022-11-08T14:22:02.102Z,21.35
2022-11-08T14:24:35.913Z,22.40
2022-11-08T14:27:03.427Z,21.63
2022-11-08T14:29:30.447Z,22.23
2022-11-08T14:32:06.971Z,17.20
2022-11-08T14:34:38.267Z,22.52
2022-11-08T14:37:16.003Z,20.80
2022-11-08T14:39:46.691Z,23.42
2022-11-08T14:42:24.847Z,24.70
2022-11-08T14:44:57.658Z,21.65
2022-11-08T14:47:31.194Z,24.38
2022-11-08T14:49:59.473Z,22.90
2022-11-08T14:52:32.153Z,18.65
2022-11-08T14:55:08.467Z,22.00
2022-11-08T14:57:45.633Z,20.02
2022-11-08T15:00:20.580Z,20.52
2022-11-08T15:03:03.869Z,19.70
2022-11-08T15:05:38.019Z,20.27
2022-11-08T15:08:15.546Z,18.60
2022-11-08T15:10:57.032Z,23.42
2022-11-08T15:13:26.409Z,19.35
2022-11-08T15:15:58.157Z,21.63
2022-11-08T15:18:28.586Z,23.23
2022-11-08T15:21:10.044Z,23.30
2022-11-08T15:23:43.562Z,21.85
2022-11-08T15:26:22.083Z,21.90
2022-11-08T15:29:00.248Z,21.08
2022-11-08T15:31:35.615Z,25.92
2022-11-08T15:34:03.151Z,21.58
2022-11-08T15:36:37.692Z,21.98
2022-11-08T15:39:07.125Z,22.40
2022-11-08T15:41:38.396Z,21.85
2022-11-08T15:44:22.098Z,20.35
2022-11-08T15:46:50.780Z,19.00
2022-11-08T15:49:23.929Z,19.48
2022-11-08T15:51:52.959Z,21.95
2022-11-08T15:54:21.548Z,28.92
2022-11-08T15:56:51.008Z,23.85
2022-11-08T15:59:26.993Z,28.63
2022-11-08T16:01:57.476Z,22.20
2022-11-08T16:04:25.541Z,29.55
2022-11-08T16:06:52.662Z,29.08
2022-11-08T16:09:19.761Z,26.17
2022-11-08T16:11:48.022Z,23.45
2022-11-08T16:14:24.270Z,21.80
2022-11-08T16:16:51.741Z,23.50
2022-11-08T16:19:27.763Z,25.23
2022-11-08T16:21:55.305Z,20.85
2022-11-08T16:24:22.722Z,24.05
2022-11-08T16:26:50.078Z,22.17
2022-11-08T16:29:24.090Z,21.92
2022-11-08T16:31:52.016Z,21.67
2022-11-08T16:34:20.024Z,18.85
2022-11-08T16:36:49.193Z,22.92
2022-11-08T16:39:27.691Z,22.05
2022-11-08T16:41:54.792Z,21.90
2022-11-08T16:44:22.905Z,23.30
2022-11-08T16:46:52.961Z,21.88
2022-11-08T16:49:24.512Z,22.65
2022-11-08T16:51:55.798Z,23.25
2022-11-08T16:54:28.620Z,23.60
2022-11-08T16:57:20.504Z,24.10
2022-11-08T16:59:45.123Z,22.73
2022-11-08T17:02:26.006Z,24.88
2022-11-08T17:04:54.351Z,24.40
2022-11-08T17:07:24.318Z,24.83
2022-11-08T17:09:51.943Z,27.25
2022-11-08T17:12:19.073Z,25.95
2022-11-08T17:14:46.482Z,24.15
2022-11-08T17:17:14.333Z,23.63
2022-11-08T17:19:42.138Z,24.55
2022-11-08T17:22:09.579Z,24.77
2022-11-08T17:24:36.723Z,24.60
2022-11-08T17:27:04.003Z,25.00
2022-11-08T17:29:31.160Z,27.75
2022-11-08T17:31:58.400Z,25.83
2022-11-08T17:34:25.799Z,26.63
2022-11-08T17:36:53.271Z,26.13
2022-11-08T17:39:20.233Z,27.00
2022-11-08T17:41:47.287Z,28.58
2022-11-08T17:44:17.557Z,26.58
2022-11-08T17:46:44.605Z,27.85
2022-11-08T17:49:11.528Z,26.45
2022-11-08T17:51:40.013Z,27.52
2022-11-08T17:54:08.380Z,25.58
2022-11-08T17:56:36.439Z,25.60
2022-11-08T17:59:04.609Z,27.88
2022-11-08T18:01:32.365Z,28.58
2022-11-08T18:04:00.076Z,27.60
2022-11-08T18:06:28.397Z,29.27
2022-11-08T18:08:59.332Z,31.48
2022-11-08T18:11:26.563Z,28.20
2022-11-08T18:13:54.069Z,28.30
2022-11-08T18:16:24.130Z,28.33
2022-11-08T18:18:52.117Z,24.95
2022-11-08T18:21:20.231Z,30.52
2022-11-08T18:23:48.723Z,32.22
2022-11-08T18:26:17.557Z,29.15
2022-11-08T18:28:45.520Z,31.13
2022-11-08T18:31:15.913Z,31.00
2022-11-08T18:33:44.158Z,28.85
2022-11-08T18:36:15.972Z,27.55
2022-11-08T18:38:46.175Z,28.07
2022-11-08T18:41:19.220Z,25.33
2022-11-08T18:43:46.961Z,24.92
2022-11-08T18:46:17.364Z,26.00
2022-11-08T18:48:45.148Z,29.25
2022-11-08T18:51:18.102Z,26.02
2022-11-08T18:53:45.666Z,26.73
2022-11-08T18:56:13.989Z,30.40
2022-11-08T18:58:44.034Z,29.05
2022-11-08T19:01:11.739Z,28.02
2022-11-08T19:03:39.584Z,27.60
2022-11-08T19:06:07.446Z,27.88
2022-11-08T19:08:40.147Z,24.50
2022-11-08T19:11:10.139Z,24.70
2022-11-08T19:13:39.044Z,25.48
2022-11-08T19:16:13.618Z,25.67
2022-11-08T19:18:41.461Z,25.58
2022-11-08T19:21:15.446Z,24.75
2022-11-08T19:23:43.364Z,29.30
2022-11-08T19:26:15.463Z,26.55
2022-11-08T19:28:45.899Z,25.08
2022-11-08T19:31:15.305Z,26.42
2022-11-08T19:33:43.159Z,25.58
2022-11-08T19:36:18.854Z,22.80
2022-11-08T19:38:47.351Z,22.45
2022-11-08T19:41:20.229Z,23.95
2022-11-08T19:43:48.733Z,19.05
2022-11-08T19:46:26.932Z,17.83
2022-11-08T19:48:55.673Z,24.00
2022-11-08T19:51:25.880Z,22.13
2022-11-08T19:54:01.477Z,20.13
2022-11-08T19:56:57.718Z,22.17
2022-11-08T19:59:18.392Z,22.73
2022-11-08T20:01:46.948Z,23.55
2022-11-08T20:04:15.342Z,23.45
2022-11-08T20:06:43.419Z,22.92
2022-11-08T20:09:11.832Z,22.50
2022-11-08T20:11:41.630Z,27.95
2022-11-08T20:14:11.128Z,25.27
2022-11-08T20:16:42.080Z,22.92
2022-11-08T20:19:13.008Z,25.35
2022-11-08T20:21:42.573Z,26.35
2022-11-08T20:24:11.065Z,25.48
2022-11-08T20:26:39.593Z,24.45
2022-11-08T20:29:10.398Z,22.60
2022-11-08T20:31:38.721Z,22.55
2022-11-08T20:34:09.834Z,23.95
2022-11-08T20:36:38.187Z,25.77
2022-11-08T20:39:08.244Z,23.13
2022-11-08T20:41:37.968Z,22.30
2022-11-08T20:44:06.907Z,19.20
2022-11-08T20:46:35.585Z,21.27
2022-11-08T20:49:04.306Z,21.35
2022-11-08T20:51:32.788Z,20.98
2022-11-08T20:54:01.224Z,21.55
2022-11-08T20:56:29.372Z,21.70
2022-11-08T20:58:56.706Z,22.55
2022-11-08T21:01:27.619Z,21.40
2022-11-08T21:03:55.790Z,23.20
2022-11-08T21:06:25.293Z,21.33
2022-11-08T21:09:08.258Z,16.70
2022-11-08T21:11:37.278Z,21.40
2022-11-08T21:14:07.059Z,22.02
2022-11-08T21:16:59.306Z,22.42
2022-11-08T21:19:23.361Z,24.20
2022-11-08T21:21:50.390Z,26.15
2022-11-08T21:24:17.832Z,24.05
2022-11-08T21:26:44.867Z,23.48
2022-11-08T21:29:12.538Z,23.00
2022-11-08T21:31:39.956Z,23.52
2022-11-08T21:34:08.705Z,24.23
2022-11-08T21:36:36.029Z,22.83
2022-11-08T21:39:04.220Z,22.20
2022-11-08T21:41:31.760Z,24.63
2022-11-08T21:43:59.717Z,23.35
2022-11-08T21:46:27.409Z,21.20
2022-11-08T21:48:59.742Z,22.50
2022-11-08T21:51:29.481Z,22.88
2022-11-08T21:53:58.395Z,22.65
2022-11-08T21:56:28.939Z,24.05
2022-11-08T21:58:56.306Z,21.67
2022-11-08T22:01:29.618Z,22.90
2022-11-08T22:03:59.038Z,22.77
2022-11-08T22:06:26.605Z,21.40
2022-11-08T22:08:53.960Z,21.65
2022-11-08T22:11:21.063Z,21.27
2022-11-08T22:13:48.112Z,20.27
2022-11-08T22:16:15.239Z,21.27
2022-11-08T22:19:03.770Z,24.13
2022-11-08T22:21:39.299Z,21.92
2022-11-08T22:24:10.126Z,22.35
2022-11-08T22:26:37.517Z,21.92
2022-11-08T22:29:04.739Z,21.30
2022-11-08T22:31:32.051Z,19.55
2022-11-08T22:33:59.969Z,19.95
2022-11-08T22:36:27.780Z,19.85
2022-11-08T22:38:55.216Z,20.00
2022-11-08T22:41:23.699Z,20.42
2022-11-08T22:43:51.385Z,19.15
2022-11-08T22:46:18.774Z,21.70
2022-11-08T22:48:46.303Z,20.25
2022-11-08T22:51:13.471Z,19.30
2022-11-08T22:53:41.426Z,19.65
2022-11-08T22:56:11.492Z,18.90
2022-11-08T22:58:39.323Z,20.30
2022-11-08T23:01:08.093Z,18.65
2022-11-08T23:03:35.177Z,20.42
2022-11-08T23:06:02.222Z,18.20
2022-11-08T23:08:29.529Z,19.85
2022-11-08T23:11:18.795Z,20.42
2022-11-08T23:14:05.348Z,19.52
2022-11-08T23:16:37.256Z,19.67
2022-11-08T23:19:27.110Z,17.57
2022-11-08T23:22:13.816Z,18.10
2022-11-08T23:24:42.978Z,20.05
2022-11-08T23:27:30.867Z,19.25
2022-11-08T23:30:17.103Z,18.70
2022-11-08T23:32:46.428Z,18.88
2022-11-08T23:35:14.765Z,19.52
2022-11-08T23:37:41.766Z,17.55
2022-11-08T23:40:29.646Z,21.08
2022-11-08T23:43:32.515Z,20.23
2022-11-08T23:46:09.024Z,18.80
2022-11-08T23:48:36.886Z,19.90
2022-11-08T23:51:04.841Z,18.63
2022-11-08T23:53:33.843Z,18.13
2022-11-08T23:56:00.787Z,19.00
2022-11-08T23:58:27.818Z,19.88
